Time;durP1;ratioP1;P1;durP2;ratioP2;P2;SDS_P1;SDS_P2;PMS_P1;PMS_P2;Temp;Humidity;BMP_temperature;BMP_pressure;BME280_temperature;BME280_humidity;BME280_pressure;Samples;Min_cycle;Max_cycle;Signal;HPM_P1;HPM_P2
2021/05/10 00:02:46;;;;;;;7.63;3.50;;;;;;;16.64;75.70;99133.28;21137357;28;20097;-72
2021/05/10 00:12:48;;;;;;;9.27;5.50;;;;;;;16.75;75.26;99104.00;21169172;28;20056;-72
2021/05/10 00:22:49;;;;;;;7.03;4.13;;;;;;;16.61;75.79;99081.56;21167977;28;20101;-72
2021/05/10 00:32:50;;;;;;;6.30;3.50;;;;;;;16.45;77.86;99070.88;21157340;28;20040;-73
2021/05/10 00:42:51;;;;;;;5.03;3.30;;;;;;;16.42;77.79;99028.06;21054183;28;20553;-73
2021/05/10 00:52:52;;;;;;;5.35;3.30;;;;;;;16.32;79.11;99003.56;20997116;28;20118;-73
2021/05/10 01:02:53;;;;;;;6.35;3.42;;;;;;;16.27;78.82;98986.38;21113715;27;20044;-73
2021/05/10 01:12:55;;;;;;;5.75;3.53;;;;;;;16.31;79.16;99015.09;21164102;28;20122;-71
2021/05/10 01:22:57;;;;;;;5.93;3.30;;;;;;;16.18;79.72;99023.44;21163318;28;20051;-72
2021/05/10 01:32:59;;;;;;;6.05;3.40;;;;;;;16.09;80.54;99035.75;21152673;27;20461;-72
2021/05/10 01:43:01;;;;;;;6.13;3.38;;;;;;;15.99;81.07;99021.78;21161675;28;20096;-71
2021/05/10 01:53:04;;;;;;;6.00;3.22;;;;;;;15.95;81.04;99011.69;21160225;28;20059;-71
2021/05/10 02:03:11;;;;;;;5.90;3.10;;;;;;;15.82;81.75;98994.41;21150435;28;20051;-71
2021/05/10 02:13:21;;;;;;;7.30;3.30;;;;;;;15.65;82.69;98982.03;21159267;28;20047;-71
2021/05/10 02:23:27;;;;;;;6.63;3.65;;;;;;;15.50;83.63;98982.66;21157311;28;20058;-70
2021/05/10 02:33:33;;;;;;;7.80;3.58;;;;;;;15.40;83.21;98965.09;21146730;28;20089;-71
2021/05/10 02:43:34;;;;;;;6.32;3.38;;;;;;;15.39;82.85;98968.72;21156327;28;20093;-71
2021/05/10 02:53:35;;;;;;;7.90;3.42;;;;;;;15.19;85.27;98969.81;21006703;28;20056;-71
2021/05/10 03:03:36;;;;;;;6.43;3.30;;;;;;;15.00;84.24;98962.00;21116015;28;20498;-72
2021/05/10 03:13:38;;;;;;;8.57;4.13;;;;;;;14.88;83.54;98973.72;21154221;28;20120;-71
2021/05/10 03:23:39;;;;;;;11.07;3.92;;;;;;;15.04;82.39;98994.97;21153669;28;20108;-71
2021/05/10 03:33:40;;;;;;;7.00;4.20;;;;;;;14.82;87.38;99141.09;21144211;28;20108;-71
2021/05/10 03:43:42;;;;;;;9.95;4.00;;;;;;;14.89;91.28;99157.97;21152529;28;20088;-72
2021/05/10 03:53:44;;;;;;;8.13;4.32;;;;;;;14.96;89.89;99158.25;21152120;28;20520;-72
2021/05/10 04:03:51;;;;;;;7.22;3.80;;;;;;;15.15;87.61;99154.75;21141937;28;20093;-72
2021/05/10 04:13:55;;;;;;;6.00;4.07;;;;;;;15.22;87.64;99148.78;21151522;28;20070;-72
2021/05/10 04:23:56;;;;;;;6.55;3.70;;;;;;;15.20;91.58;99139.34;21151221;28;20453;-72
2021/05/10 04:33:58;;;;;;;7.20;3.90;;;;;;;15.30;91.24;99146.25;21140898;28;20045;-72
2021/05/10 04:43:59;;;;;;;9.05;5.10;;;;;;;15.36;92.88;99182.59;21161941;28;20040;-72
2021/05/10 04:54:00;;;;;;;7.40;4.65;;;;;;;15.48;90.88;99230.72;21071604;28;20110;-71
2021/05/10 05:04:02;;;;;;;6.82;4.32;;;;;;;15.46;90.37;99245.84;21131635;28;20118;-71
2021/05/10 05:14:04;;;;;;;7.07;3.78;;;;;;;15.58;88.43;99273.75;21164411;28;20100;-72
2021/05/10 05:24:05;;;;;;;8.40;3.65;;;;;;;15.57;85.63;99252.78;21163218;28;20039;-72
2021/05/10 05:34:07;;;;;;;5.57;3.65;;;;;;;15.97;86.61;99261.28;21043862;22;20064;-75
2021/05/10 05:44:08;;;;;;;7.18;3.67;;;;;;;16.31;85.47;99285.28;21076047;28;20121;-75
2021/05/10 05:54:10;;;;;;;6.32;3.53;;;;;;;16.53;83.84;99310.47;21075052;28;20044;-74
2021/05/10 06:04:11;;;;;;;5.43;3.10;;;;;;;16.55;82.92;99327.03;21007881;28;20045;-74
2021/05/10 06:14:12;;;;;;;4.82;3.00;;;;;;;16.49;83.71;99336.38;20989798;28;20052;-75
2021/05/10 06:24:14;;;;;;;6.18;3.90;;;;;;;16.65;81.76;99360.38;20989072;28;20066;-75
2021/05/10 06:34:15;;;;;;;5.90;3.30;;;;;;;16.83;81.31;99370.97;21010561;28;20504;-74
2021/05/10 06:44:17;;;;;;;8.80;4.25;;;;;;;17.14;79.82;99387.34;21044812;28;20126;-74
2021/05/10 06:54:18;;;;;;;13.88;4.15;;;;;;;17.43;74.44;99405.63;21061382;28;20832;-74
2021/05/10 07:04:20;;;;;;;6.13;2.53;;;;;;;18.28;70.08;99434.19;21030237;28;20043;-74
2021/05/10 07:14:21;;;;;;;7.35;2.42;;;;;;;18.72;65.39;99459.66;21057407;28;20097;-73
2021/05/10 07:24:23;;;;;;;5.35;2.15;;;;;;;19.25;61.28;99470.97;21064683;28;20457;-74
2021/05/10 07:34:25;;;;;;;5.95;2.13;;;;;;;19.88;60.22;99481.91;21059902;28;20079;-74
2021/05/10 07:44:28;;;;;;;3.22;1.55;;;;;;;20.35;58.46;99488.25;21042111;28;20793;-75
2021/05/10 08:04:33;;;;;;;7.00;1.60;;;;;;;19.09;59.46;99493.81;20811331;28;20042;-73
2021/05/10 08:14:34;;;;;;;3.58;1.08;;;;;;;18.92;59.63;99480.63;20899357;28;20045;-73
2021/05/10 08:24:36;;;;;;;4.03;1.23;;;;;;;19.38;57.71;99497.88;20907386;28;20049;-73
2021/05/10 08:34:37;;;;;;;3.08;0.95;;;;;;;18.96;57.75;99529.69;20919146;28;20500;-76
2021/05/10 08:44:38;;;;;;;3.38;1.00;;;;;;;18.78;57.72;99538.56;20892501;28;20496;-73
2021/05/10 08:54:41;;;;;;;2.53;0.70;;;;;;;18.53;58.62;99552.59;20868789;28;535744;-74
2021/05/10 09:04:43;;;;;;;1.88;0.68;;;;;;;18.80;58.16;99586.13;20925485;28;20561;-74
2021/05/10 09:14:47;;;;;;;2.05;0.50;;;;;;;18.70;58.82;99599.47;20922979;28;20052;-73
2021/05/10 09:24:50;;;;;;;1.25;0.40;;;;;;;18.93;57.08;99596.31;20894093;28;20107;-73
2021/05/10 09:35:13;;;;;;;0.73;0.40;;;;;;;18.99;57.09;99601.00;20899550;28;20143;-73
2021/05/10 09:45:38;;;;;;;1.95;0.30;;;;;;;19.13;55.98;99601.25;20887987;28;20041;-73
2021/05/10 09:55:53;;;;;;;0.57;0.30;;;;;;;19.34;56.29;99611.50;20884720;28;20045;-73
2021/05/10 10:05:56;;;;;;;1.60;0.50;;;;;;;19.66;55.13;99625.94;20882399;28;20040;-72
2021/05/10 10:15:58;;;;;;;0.60;0.20;;;;;;;19.55;53.85;99643.81;20902327;28;20103;-73
2021/05/10 10:26:01;;;;;;;2.63;0.40;;;;;;;19.64;54.54;99610.16;20939786;28;20045;-73
2021/05/10 10:36:05;;;;;;;4.43;0.45;;;;;;;19.63;54.14;99625.25;20884909;28;20454;-73
2021/05/10 10:46:20;;;;;;;0.60;0.30;;;;;;;19.34;55.43;99630.06;20900953;28;20045;-73
2021/05/10 10:56:53;;;;;;;4.57;1.42;;;;;;;19.29;55.23;99681.94;20908136;28;20523;-74
2021/05/10 11:06:55;;;;;;;1.10;0.30;;;;;;;19.24;54.96;99679.75;20887987;28;20451;-73
2021/05/10 11:16:56;;;;;;;1.83;0.93;;;;;;;19.52;54.43;99677.78;20901719;28;20041;-74
2021/05/10 11:27:01;;;;;;;0.80;0.60;;;;;;;19.18;54.23;99704.25;20888241;28;20056;-74
2021/05/10 11:37:05;;;;;;;1.35;0.25;;;;;;;18.83;56.35;99725.53;20881763;28;20041;-74
2021/05/10 11:47:10;;;;;;;3.75;0.40;;;;;;;18.44;55.76;99739.00;20896972;28;20508;-74
2021/05/10 11:57:14;;;;;;;0.88;0.28;;;;;;;18.37;56.92;99761.81;20897394;28;20085;-74
2021/05/10 12:07:17;;;;;;;0.43;0.25;;;;;;;17.76;62.30;99762.38;20878322;28;20041;-75
2021/05/10 12:17:21;;;;;;;1.10;0.50;;;;;;;17.80;66.70;99760.25;20896127;28;20095;-74
2021/05/10 12:27:25;;;;;;;0.60;0.40;;;;;;;17.42;73.29;99710.91;20897917;28;20512;-73
2021/05/10 12:37:26;;;;;;;2.85;0.40;;;;;;;17.46;76.79;99747.50;20893265;28;21140;-72
2021/05/10 12:47:36;;;;;;;4.68;0.70;;;;;;;17.78;74.98;99754.25;20896866;28;20052;-72
2021/05/10 12:57:40;;;;;;;1.65;0.40;;;;;;;17.38;75.89;99757.13;20875573;28;20566;-73
2021/05/10 13:07:48;;;;;;;1.75;0.80;;;;;;;17.69;75.79;99761.25;20908332;28;20060;-73
2021/05/10 13:18:02;;;;;;;3.47;0.75;;;;;;;17.48;75.78;99772.00;20910212;28;20127;-74
2021/05/10 13:38:40;;;;;;;0.98;0.20;;;;;;;17.22;74.25;99778.06;20871038;28;20451;-74
2021/05/10 13:48:42;;;;;;;0.90;0.40;;;;;;;17.22;73.80;99767.47;20909523;28;20443;-73
2021/05/10 13:58:45;;;;;;;1.75;0.35;;;;;;;16.86;76.81;99767.19;20910510;22;20049;-70
2021/05/10 14:08:46;;;;;;;2.88;0.47;;;;;;;16.72;77.05;99750.88;20907059;28;20412;-70
2021/05/10 14:18:56;;;;;;;3.05;1.02;;;;;;;16.49;81.12;99730.00;20886156;28;20144;-69
2021/05/10 14:28:57;;;;;;;0.63;0.32;;;;;;;16.49;82.38;99732.63;20914571;28;20041;-70
2021/05/10 14:38:59;;;;;;;3.25;0.50;;;;;;;16.50;81.89;99726.38;20907501;28;20388;-70
2021/05/10 14:49:01;;;;;;;2.55;0.65;;;;;;;16.13;85.35;99715.59;20902974;28;20393;-70
2021/05/10 14:59:03;;;;;;;1.65;0.40;;;;;;;16.01;86.13;99723.75;20880771;28;20091;-70
2021/05/10 15:09:05;;;;;;;0.77;0.40;;;;;;;15.76;91.42;99722.41;20903162;28;20393;-70
2021/05/10 15:19:07;;;;;;;2.03;0.60;;;;;;;16.15;93.98;99737.41;20902802;28;20119;-70
2021/05/10 15:29:08;;;;;;;1.85;0.90;;;;;;;16.01;95.61;99743.06;20910594;28;20449;-69
2021/05/10 15:39:10;;;;;;;1.75;1.13;;;;;;;15.85;98.88;99736.63;20879452;28;20128;-69
2021/05/10 15:49:12;;;;;;;1.00;0.63;;;;;;;15.41;100.00;99742.06;20901436;28;20099;-70
2021/05/10 15:59:13;;;;;;;3.92;1.00;;;;;;;15.84;99.28;99746.34;20900718;28;20045;-70
2021/05/10 16:09:14;;;;;;;3.35;1.33;;;;;;;15.47;100.00;99745.97;20897626;28;20041;-70
2021/05/10 16:19:16;;;;;;;3.55;1.63;;;;;;;15.48;100.00;99737.09;20893398;28;20099;-70
2021/05/10 16:29:17;;;;;;;2.67;1.40;;;;;;;15.70;100.00;99730.84;20889187;28;20037;-67
2021/05/10 16:39:18;;;;;;;4.28;1.60;;;;;;;15.48;100.00;99733.63;20878547;28;20045;-67
2021/05/10 16:49:19;;;;;;;3.08;1.58;;;;;;;15.48;100.00;99723.09;20890793;28;20045;-68
2021/05/10 16:59:21;;;;;;;4.78;1.60;;;;;;;15.53;100.00;99723.56;20926769;28;20270;-67
2021/05/10 17:09:23;;;;;;;3.47;1.63;;;;;;;15.09;100.00;99728.09;20914135;28;20045;-67
2021/05/10 17:19:24;;;;;;;4.88;2.90;;;;;;;15.01;100.00;99720.00;20912796;28;20053;-68
2021/05/10 17:29:26;;;;;;;4.03;1.55;;;;;;;15.07;100.00;99730.03;20909255;28;20053;-67
2021/05/10 17:39:27;;;;;;;4.90;2.00;;;;;;;15.02;100.00;99732.22;20902290;28;20446;-68
2021/05/10 17:49:30;;;;;;;3.63;1.85;;;;;;;14.71;100.00;99735.72;20947951;28;20076;-67
2021/05/10 17:59:36;;;;;;;3.58;1.38;;;;;;;14.43;100.00;99729.22;20934670;28;20094;-68
2021/05/10 18:09:37;;;;;;;3.03;1.20;;;;;;;14.39;100.00;99727.78;20931343;28;20053;-71
2021/05/10 18:19:43;;;;;;;5.40;2.20;;;;;;;14.33;100.00;99715.91;20912954;28;20044;-68
2021/05/10 18:29:45;;;;;;;3.85;1.80;;;;;;;14.29;100.00;99719.75;20917657;28;20056;-70
2021/05/10 18:39:48;;;;;;;5.97;2.65;;;;;;;14.14;100.00;99723.63;20918922;28;20100;-69
2021/05/10 18:49:53;;;;;;;7.85;5.10;;;;;;;14.10;100.00;99728.31;20930826;28;20053;-67
2021/05/10 18:59:54;;;;;;;4.80;2.30;;;;;;;14.13;100.00;99708.78;20910566;28;20103;-68
2021/05/10 19:09:55;;;;;;;5.97;2.58;;;;;;;14.02;100.00;99699.09;20903419;28;20095;-69
2021/05/10 19:19:57;;;;;;;9.85;6.10;;;;;;;13.99;100.00;99715.16;20903932;28;20107;-71
2021/05/10 19:29:58;;;;;;;5.72;2.97;;;;;;;13.82;100.00;99697.22;20908014;28;20049;-69
2021/05/10 19:40:00;;;;;;;6.18;3.08;;;;;;;13.81;100.00;99710.50;20891232;28;20566;-69
2021/05/10 20:10:26;;;;;;;5.63;2.60;;;;;;;13.56;100.00;99680.84;20815069;28;20148;-68
2021/05/10 20:20:27;;;;;;;5.13;2.65;;;;;;;13.46;100.00;99690.41;20909445;28;20546;-70
2021/05/10 20:30:28;;;;;;;5.40;2.97;;;;;;;13.47;100.00;99680.72;20911227;28;20390;-69
2021/05/10 20:40:31;;;;;;;6.30;3.00;;;;;;;13.48;100.00;99695.56;20914397;28;20051;-70
2021/05/10 20:50:32;;;;;;;7.82;3.95;;;;;;;13.44;100.00;99694.97;20895267;28;20044;-70
2021/05/10 21:00:33;;;;;;;6.38;3.70;;;;;;;13.33;100.00;99696.75;20904267;28;20037;-70
2021/05/10 21:10:35;;;;;;;9.57;5.38;;;;;;;13.28;100.00;99697.94;20894470;28;20389;-70
2021/05/10 21:20:36;;;;;;;8.98;4.90;;;;;;;13.19;100.00;99687.28;20884814;28;20052;-69
2021/05/10 21:30:37;;;;;;;8.48;5.20;;;;;;;13.16;100.00;99679.63;20902131;28;20053;-69
2021/05/10 21:40:39;;;;;;;9.30;5.03;;;;;;;13.10;100.00;99687.97;20908075;28;20053;-69
2021/05/10 21:50:41;;;;;;;9.35;4.90;;;;;;;13.17;100.00;99678.69;20916981;28;20492;-69
2021/05/10 22:00:44;;;;;;;8.43;5.00;;;;;;;13.21;100.00;99695.88;20953559;28;20087;-69
2021/05/10 22:10:46;;;;;;;8.27;6.00;;;;;;;13.22;100.00;99687.03;20906462;28;20056;-69
2021/05/10 22:20:50;;;;;;;7.97;5.75;;;;;;;13.24;100.00;99678.09;20904007;28;20111;-69
2021/05/10 22:30:53;;;;;;;10.50;7.13;;;;;;;13.23;100.00;99654.56;20897915;28;20068;-70
2021/05/10 23:21:43;;;;;;;12.05;7.18;;;;;;;13.11;100.00;99632.69;20818688;28;20049;-73
2021/05/10 23:31:44;;;;;;;8.60;6.18;;;;;;;13.03;100.00;99623.69;20829029;28;20053;-73
2021/05/10 23:41:46;;;;;;;10.38;6.72;;;;;;;13.08;100.00;99642.56;20803072;28;20045;-72
2021/05/10 23:51:47;;;;;;;10.80;6.85;;;;;;;13.04;100.00;99613.06;20817803;28;20057;-73
